sensor_id;sensor_type;location;lat;lon;timestamp;temperature;humidity
58519;DHT22;44310;48.106;12.008;2023-02-25T00:01:34;16.30;86.80
58519;DHT22;44310;48.106;12.008;2023-02-25T00:04:01;16.30;87.20
58519;DHT22;44310;48.106;12.008;2023-02-25T00:06:28;16.40;87.50
58519;DHT22;44310;48.106;12.008;2023-02-25T00:08:55;16.40;87.80
58519;DHT22;44310;48.106;12.008;2023-02-25T00:11:24;16.40;87.90
58519;DHT22;44310;48.106;12.008;2023-02-25T00:13:52;16.40;88.50
58519;DHT22;44310;48.106;12.008;2023-02-25T00:16:20;16.50;88.70
58519;DHT22;44310;48.106;12.008;2023-02-25T00:18:55;16.50;89.00
58519;DHT22;44310;48.106;12.008;2023-02-25T00:21:24;16.40;88.90
58519;DHT22;44310;48.106;12.008;2023-02-25T00:23:51;16.10;88.80
58519;DHT22;44310;48.106;12.008;2023-02-25T00:26:20;16.40;88.80
58519;DHT22;44310;48.106;12.008;2023-02-25T00:28:48;16.40;89.10
58519;DHT22;44310;48.106;12.008;2023-02-25T00:31:18;16.40;89.30
58519;DHT22;44310;48.106;12.008;2023-02-25T00:33:46;16.40;89.20
58519;DHT22;44310;48.106;12.008;2023-02-25T00:36:16;16.30;89.00
58519;DHT22;44310;48.106;12.008;2023-02-25T00:38:52;16.40;89.40
58519;DHT22;44310;48.106;12.008;2023-02-25T00:41:22;16.50;89.70
58519;DHT22;44310;48.106;12.008;2023-02-25T00:43:52;16.40;89.80
58519;DHT22;44310;48.106;12.008;2023-02-25T00:46:20;16.40;89.70
58519;DHT22;44310;48.106;12.008;2023-02-25T00:48:49;16.40;89.90
58519;DHT22;44310;48.106;12.008;2023-02-25T00:51:19;16.40;90.00
58519;DHT22;44310;48.106;12.008;2023-02-25T00:53:46;16.40;90.00
58519;DHT22;44310;48.106;12.008;2023-02-25T00:56:15;16.20;89.80
58519;DHT22;44310;48.106;12.008;2023-02-25T00:58:43;16.30;89.70
58519;DHT22;44310;48.106;12.008;2023-02-25T01:01:24;16.30;89.60
58519;DHT22;44310;48.106;12.008;2023-02-25T01:03:53;16.30;89.40
58519;DHT22;44310;48.106;12.008;2023-02-25T01:06:24;16.30;89.30
58519;DHT22;44310;48.106;12.008;2023-02-25T01:08:51;16.10;89.20
58519;DHT22;44310;48.106;12.008;2023-02-25T01:11:24;16.20;89.20
58519;DHT22;44310;48.106;12.008;2023-02-25T01:13:57;16.70;89.40
58519;DHT22;44310;48.106;12.008;2023-02-25T01:16:29;16.20;89.00
58519;DHT22;44310;48.106;12.008;2023-02-25T01:18:59;16.20;88.90
58519;DHT22;44310;48.106;12.008;2023-02-25T01:21:33;16.90;89.60
58519;DHT22;44310;48.106;12.008;2023-02-25T01:24:11;16.20;90.00
58519;DHT22;44310;48.106;12.008;2023-02-25T01:26:40;16.30;89.80
58519;DHT22;44310;48.106;12.008;2023-02-25T01:29:11;16.30;89.80
58519;DHT22;44310;48.106;12.008;2023-02-25T01:31:39;16.30;89.70
58519;DHT22;44310;48.106;12.008;2023-02-25T01:34:09;16.30;89.30
58519;DHT22;44310;48.106;12.008;2023-02-25T01:36:37;16.20;88.90
58519;DHT22;44310;48.106;12.008;2023-02-25T01:39:04;16.40;88.90
58519;DHT22;44310;48.106;12.008;2023-02-25T01:41:34;16.90;88.90
58519;DHT22;44310;48.106;12.008;2023-02-25T01:46:40;16.20;88.30
58519;DHT22;44310;48.106;12.008;2023-02-25T01:49:18;16.10;88.30
58519;DHT22;44310;48.106;12.008;2023-02-25T01:51:49;16.10;87.80
58519;DHT22;44310;48.106;12.008;2023-02-25T01:54:19;16.10;87.70
58519;DHT22;44310;48.106;12.008;2023-02-25T01:56:51;16.20;88.80
58519;DHT22;44310;48.106;12.008;2023-02-25T01:59:20;16.20;88.90
58519;DHT22;44310;48.106;12.008;2023-02-25T02:01:48;16.20;88.60
58519;DHT22;44310;48.106;12.008;2023-02-25T02:04:16;16.20;87.60
58519;DHT22;44310;48.106;12.008;2023-02-25T02:06:47;16.10;86.90
58519;DHT22;44310;48.106;12.008;2023-02-25T02:09:19;16.10;86.60
58519;DHT22;44310;48.106;12.008;2023-02-25T02:11:47;16.00;86.50
58519;DHT22;44310;48.106;12.008;2023-02-25T02:14:18;16.10;86.50
58519;DHT22;44310;48.106;12.008;2023-02-25T02:17:04;16.00;86.50
58519;DHT22;44310;48.106;12.008;2023-02-25T02:20:05;16.10;86.70
58519;DHT22;44310;48.106;12.008;2023-02-25T02:22:54;15.80;86.30
58519;DHT22;44310;48.106;12.008;2023-02-25T02:39:50;16.20;87.80
58519;DHT22;44310;48.106;12.008;2023-02-25T02:42:39;16.30;88.00
58519;DHT22;44310;48.106;12.008;2023-02-25T02:47:56;16.30;88.20
58519;DHT22;44310;48.106;12.008;2023-02-25T02:50:28;16.30;88.20
58519;DHT22;44310;48.106;12.008;2023-02-25T02:53:05;16.30;88.30
58519;DHT22;44310;48.106;12.008;2023-02-25T02:55:39;16.20;87.80
58519;DHT22;44310;48.106;12.008;2023-02-25T02:58:10;16.10;87.30
58519;DHT22;44310;48.106;12.008;2023-02-25T03:00:41;16.10;87.10
58519;DHT22;44310;48.106;12.008;2023-02-25T03:03:16;16.10;87.10
58519;DHT22;44310;48.106;12.008;2023-02-25T03:05:48;16.10;86.90
58519;DHT22;44310;48.106;12.008;2023-02-25T03:08:24;15.40;86.40
58519;DHT22;44310;48.106;12.008;2023-02-25T03:10:52;16.00;86.40
58519;DHT22;44310;48.106;12.008;2023-02-25T03:13:21;15.80;86.30
58519;DHT22;44310;48.106;12.008;2023-02-25T03:15:49;16.00;86.50
58519;DHT22;44310;48.106;12.008;2023-02-25T03:18:43;16.70;87.40
58519;DHT22;44310;48.106;12.008;2023-02-25T03:21:19;16.10;86.20
58519;DHT22;44310;48.106;12.008;2023-02-25T03:23:47;16.00;86.00
58519;DHT22;44310;48.106;12.008;2023-02-25T03:26:29;16.00;85.70
58519;DHT22;44310;48.106;12.008;2023-02-25T03:28:57;16.00;86.20
58519;DHT22;44310;48.106;12.008;2023-02-25T03:31:32;16.00;86.20
58519;DHT22;44310;48.106;12.008;2023-02-25T03:34:08;16.00;85.90
58519;DHT22;44310;48.106;12.008;2023-02-25T03:36:42;16.00;85.80
58519;DHT22;44310;48.106;12.008;2023-02-25T03:39:13;15.90;85.90
58519;DHT22;44310;48.106;12.008;2023-02-25T03:41:42;15.90;86.20
58519;DHT22;44310;48.106;12.008;2023-02-25T03:44:14;16.00;86.70
58519;DHT22;44310;48.106;12.008;2023-02-25T03:46:43;16.10;87.40
58519;DHT22;44310;48.106;12.008;2023-02-25T03:49:22;16.20;87.70
58519;DHT22;44310;48.106;12.008;2023-02-25T03:51:50;16.20;88.10
58519;DHT22;44310;48.106;12.008;2023-02-25T03:54:19;15.70;87.80
58519;DHT22;44310;48.106;12.008;2023-02-25T03:56:49;16.20;87.80
58519;DHT22;44310;48.106;12.008;2023-02-25T03:59:17;16.20;87.90
58519;DHT22;44310;48.106;12.008;2023-02-25T04:01:46;16.20;88.10
58519;DHT22;44310;48.106;12.008;2023-02-25T04:04:15;16.20;87.50
58519;DHT22;44310;48.106;12.008;2023-02-25T04:06:42;16.20;87.00
58519;DHT22;44310;48.106;12.008;2023-02-25T04:09:09;16.10;86.90
58519;DHT22;44310;48.106;12.008;2023-02-25T04:11:36;16.40;87.10
58519;DHT22;44310;48.106;12.008;2023-02-25T04:14:04;16.10;86.90
58519;DHT22;44310;48.106;12.008;2023-02-25T04:16:31;16.00;86.60
58519;DHT22;44310;48.106;12.008;2023-02-25T04:18:58;15.90;86.30
58519;DHT22;44310;48.106;12.008;2023-02-25T04:21:34;16.00;86.20
58519;DHT22;44310;48.106;12.008;2023-02-25T04:24:02;16.00;86.20
58519;DHT22;44310;48.106;12.008;2023-02-25T04:26:32;16.00;86.00
58519;DHT22;44310;48.106;12.008;2023-02-25T04:28:59;16.00;85.90
58519;DHT22;44310;48.106;12.008;2023-02-25T04:31:27;15.90;85.80
58519;DHT22;44310;48.106;12.008;2023-02-25T04:33:54;15.90;85.60
58519;DHT22;44310;48.106;12.008;2023-02-25T04:36:33;15.90;85.40
58519;DHT22;44310;48.106;12.008;2023-02-25T04:39:02;15.90;85.40
58519;DHT22;44310;48.106;12.008;2023-02-25T04:41:33;16.10;86.90
58519;DHT22;44310;48.106;12.008;2023-02-25T04:44:01;16.10;87.20
58519;DHT22;44310;48.106;12.008;2023-02-25T04:46:33;16.10;86.90
58519;DHT22;44310;48.106;12.008;2023-02-25T04:49:01;16.10;86.70
58519;DHT22;44310;48.106;12.008;2023-02-25T04:51:28;16.20;86.50
58519;DHT22;44310;48.106;12.008;2023-02-25T04:53:55;16.00;86.30
58519;DHT22;44310;48.106;12.008;2023-02-25T04:56:22;16.10;86.20
58519;DHT22;44310;48.106;12.008;2023-02-25T04:58:50;16.10;86.00
58519;DHT22;44310;48.106;12.008;2023-02-25T05:01:17;16.10;85.80
58519;DHT22;44310;48.106;12.008;2023-02-25T05:03:44;15.80;85.50
58519;DHT22;44310;48.106;12.008;2023-02-25T05:06:12;16.10;85.50
58519;DHT22;44310;48.106;12.008;2023-02-25T05:08:39;16.50;85.60
58519;DHT22;44310;48.106;12.008;2023-02-25T05:11:06;16.00;85.30
58519;DHT22;44310;48.106;12.008;2023-02-25T05:13:33;15.80;85.20
58519;DHT22;44310;48.106;12.008;2023-02-25T05:16:09;16.10;85.60
58519;DHT22;44310;48.106;12.008;2023-02-25T05:18:40;16.20;85.90
58519;DHT22;44310;48.106;12.008;2023-02-25T05:21:10;16.20;85.90
58519;DHT22;44310;48.106;12.008;2023-02-25T05:23:41;16.00;85.90
58519;DHT22;44310;48.106;12.008;2023-02-25T05:26:10;16.20;86.00
58519;DHT22;44310;48.106;12.008;2023-02-25T05:28:37;16.20;86.10
58519;DHT22;44310;48.106;12.008;2023-02-25T05:31:09;16.50;86.30
58519;DHT22;44310;48.106;12.008;2023-02-25T05:33:38;16.20;86.40
58519;DHT22;44310;48.106;12.008;2023-02-25T05:36:10;16.20;87.00
58519;DHT22;44310;48.106;12.008;2023-02-25T05:38:38;16.20;87.20
58519;DHT22;44310;48.106;12.008;2023-02-25T05:41:07;16.20;86.80
58519;DHT22;44310;48.106;12.008;2023-02-25T05:43:36;16.20;86.60
58519;DHT22;44310;48.106;12.008;2023-02-25T05:46:04;16.20;86.50
58519;DHT22;44310;48.106;12.008;2023-02-25T05:48:34;16.10;86.30
58519;DHT22;44310;48.106;12.008;2023-02-25T05:51:04;16.10;86.20
58519;DHT22;44310;48.106;12.008;2023-02-25T05:53:31;16.00;86.10
58519;DHT22;44310;48.106;12.008;2023-02-25T05:56:03;16.00;86.00
58519;DHT22;44310;48.106;12.008;2023-02-25T05:58:31;16.00;85.80
58519;DHT22;44310;48.106;12.008;2023-02-25T06:00:58;16.20;85.80
58519;DHT22;44310;48.106;12.008;2023-02-25T06:03:26;16.00;86.30
58519;DHT22;44310;48.106;12.008;2023-02-25T06:05:53;16.00;85.50
58519;DHT22;44310;48.106;12.008;2023-02-25T06:08:20;15.90;85.60
58519;DHT22;44310;48.106;12.008;2023-02-25T06:10:47;16.00;86.50
58519;DHT22;44310;48.106;12.008;2023-02-25T06:13:14;16.10;86.80
58519;DHT22;44310;48.106;12.008;2023-02-25T06:15:41;16.10;86.90
58519;DHT22;44310;48.106;12.008;2023-02-25T06:18:09;16.10;87.00
58519;DHT22;44310;48.106;12.008;2023-02-25T06:20:36;16.20;87.10
58519;DHT22;44310;48.106;12.008;2023-02-25T06:23:03;16.20;87.20
58519;DHT22;44310;48.106;12.008;2023-02-25T06:25:31;16.20;87.20
58519;DHT22;44310;48.106;12.008;2023-02-25T06:27:59;16.20;87.00
58519;DHT22;44310;48.106;12.008;2023-02-25T06:30:27;16.20;87.00
58519;DHT22;44310;48.106;12.008;2023-02-25T06:32:55;16.10;86.70
58519;DHT22;44310;48.106;12.008;2023-02-25T06:35:23;16.20;86.70
58519;DHT22;44310;48.106;12.008;2023-02-25T06:37:55;16.20;86.70
58519;DHT22;44310;48.106;12.008;2023-02-25T06:40:22;16.20;86.70
58519;DHT22;44310;48.106;12.008;2023-02-25T06:42:49;16.20;86.50
58519;DHT22;44310;48.106;12.008;2023-02-25T06:45:16;16.20;86.30
58519;DHT22;44310;48.106;12.008;2023-02-25T06:47:45;16.20;85.90
58519;DHT22;44310;48.106;12.008;2023-02-25T06:50:12;16.20;85.80
58519;DHT22;44310;48.106;12.008;2023-02-25T06:52:40;15.60;85.30
58519;DHT22;44310;48.106;12.008;2023-02-25T06:55:07;16.20;85.40
58519;DHT22;44310;48.106;12.008;2023-02-25T06:57:35;16.20;85.20
58519;DHT22;44310;48.106;12.008;2023-02-25T07:00:04;17.20;85.50
58519;DHT22;44310;48.106;12.008;2023-02-25T07:02:31;16.20;84.80
58519;DHT22;44310;48.106;12.008;2023-02-25T07:04:58;16.20;84.60
58519;DHT22;44310;48.106;12.008;2023-02-25T07:07:27;16.20;84.30
58519;DHT22;44310;48.106;12.008;2023-02-25T07:09:54;16.20;84.20
58519;DHT22;44310;48.106;12.008;2023-02-25T07:12:22;16.10;84.10
58519;DHT22;44310;48.106;12.008;2023-02-25T07:14:49;16.10;84.00
58519;DHT22;44310;48.106;12.008;2023-02-25T07:17:16;16.20;84.10
58519;DHT22;44310;48.106;12.008;2023-02-25T07:19:43;16.20;84.00
58519;DHT22;44310;48.106;12.008;2023-02-25T07:22:13;16.20;84.10
58519;DHT22;44310;48.106;12.008;2023-02-25T07:24:41;16.20;84.20
58519;DHT22;44310;48.106;12.008;2023-02-25T07:27:10;16.20;84.00
58519;DHT22;44310;48.106;12.008;2023-02-25T07:29:39;16.50;83.80
58519;DHT22;44310;48.106;12.008;2023-02-25T07:32:06;16.20;83.50
58519;DHT22;44310;48.106;12.008;2023-02-25T07:34:36;16.50;83.80
58519;DHT22;44310;48.106;12.008;2023-02-25T07:37:04;16.20;83.70
58519;DHT22;44310;48.106;12.008;2023-02-25T07:39:32;16.10;83.40
58519;DHT22;44310;48.106;12.008;2023-02-25T07:41:59;16.10;83.10
58519;DHT22;44310;48.106;12.008;2023-02-25T07:44:26;16.10;83.20
58519;DHT22;44310;48.106;12.008;2023-02-25T07:46:53;16.10;83.10
58519;DHT22;44310;48.106;12.008;2023-02-25T07:49:20;15.90;83.20
58519;DHT22;44310;48.106;12.008;2023-02-25T07:51:47;16.10;83.50
58519;DHT22;44310;48.106;12.008;2023-02-25T07:54:14;15.60;83.20
58519;DHT22;44310;48.106;12.008;2023-02-25T07:56:43;16.20;83.60
58519;DHT22;44310;48.106;12.008;2023-02-25T07:59:10;16.20;83.50
58519;DHT22;44310;48.106;12.008;2023-02-25T08:01:37;16.20;83.50
58519;DHT22;44310;48.106;12.008;2023-02-25T08:04:05;16.30;84.20
58519;DHT22;44310;48.106;12.008;2023-02-25T08:06:38;16.20;83.30
58519;DHT22;44310;48.106;12.008;2023-02-25T08:09:06;16.20;83.20
58519;DHT22;44310;48.106;12.008;2023-02-25T08:11:34;16.20;82.90
58519;DHT22;44310;48.106;12.008;2023-02-25T08:14:01;16.20;82.80
58519;DHT22;44310;48.106;12.008;2023-02-25T08:16:29;16.40;82.60
58519;DHT22;44310;48.106;12.008;2023-02-25T08:18:56;16.10;82.30
58519;DHT22;44310;48.106;12.008;2023-02-25T08:21:23;16.10;82.20
58519;DHT22;44310;48.106;12.008;2023-02-25T08:23:52;16.10;82.40
58519;DHT22;44310;48.106;12.008;2023-02-25T08:26:21;16.10;82.30
58519;DHT22;44310;48.106;12.008;2023-02-25T08:28:50;16.40;82.30
58519;DHT22;44310;48.106;12.008;2023-02-25T08:31:18;16.10;82.30
58519;DHT22;44310;48.106;12.008;2023-02-25T08:33:47;16.10;82.80
58519;DHT22;44310;48.106;12.008;2023-02-25T08:36:21;16.20;83.50
58519;DHT22;44310;48.106;12.008;2023-02-25T08:38:49;16.20;83.80
58519;DHT22;44310;48.106;12.008;2023-02-25T08:41:18;16.20;84.10
58519;DHT22;44310;48.106;12.008;2023-02-25T08:43:49;16.20;84.00
58519;DHT22;44310;48.106;12.008;2023-02-25T08:46:17;16.80;84.10
58519;DHT22;44310;48.106;12.008;2023-02-25T08:48:49;16.20;83.90
58519;DHT22;44310;48.106;12.008;2023-02-25T08:51:16;16.20;84.40
58519;DHT22;44310;48.106;12.008;2023-02-25T08:53:43;16.10;84.60
58519;DHT22;44310;48.106;12.008;2023-02-25T08:56:12;16.20;84.50
58519;DHT22;44310;48.106;12.008;2023-02-25T08:58:40;16.40;84.60
58519;DHT22;44310;48.106;12.008;2023-02-25T09:01:10;16.20;84.60
58519;DHT22;44310;48.106;12.008;2023-02-25T09:03:42;16.20;84.50
58519;DHT22;44310;48.106;12.008;2023-02-25T09:06:25;16.10;84.50
58519;DHT22;44310;48.106;12.008;2023-02-25T09:08:54;16.20;84.60
58519;DHT22;44310;48.106;12.008;2023-02-25T09:11:24;16.20;84.50
58519;DHT22;44310;48.106;12.008;2023-02-25T09:13:53;16.10;84.60
58519;DHT22;44310;48.106;12.008;2023-02-25T09:16:20;16.20;84.80
58519;DHT22;44310;48.106;12.008;2023-02-25T09:18:49;16.20;85.00
58519;DHT22;44310;48.106;12.008;2023-02-25T09:21:17;16.20;85.00
58519;DHT22;44310;48.106;12.008;2023-02-25T09:23:45;16.20;84.90
58519;DHT22;44310;48.106;12.008;2023-02-25T09:26:13;15.90;84.70
58519;DHT22;44310;48.106;12.008;2023-02-25T09:28:40;16.20;84.70
58519;DHT22;44310;48.106;12.008;2023-02-25T09:31:07;16.20;84.60
58519;DHT22;44310;48.106;12.008;2023-02-25T09:33:35;16.30;84.50
58519;DHT22;44310;48.106;12.008;2023-02-25T09:38:30;16.20;83.90
58519;DHT22;44310;48.106;12.008;2023-02-25T09:40:57;16.20;83.90
58519;DHT22;44310;48.106;12.008;2023-02-25T09:43:28;16.10;83.60
58519;DHT22;44310;48.106;12.008;2023-02-25T09:48:38;16.20;83.40
58519;DHT22;44310;48.106;12.008;2023-02-25T09:51:25;16.50;83.40
58519;DHT22;44310;48.106;12.008;2023-02-25T09:54:01;16.20;83.30
58519;DHT22;44310;48.106;12.008;2023-02-25T09:56:34;16.20;83.20
58519;DHT22;44310;48.106;12.008;2023-02-25T09:59:07;16.20;83.20
58519;DHT22;44310;48.106;12.008;2023-02-25T10:01:41;16.50;83.30
58519;DHT22;44310;48.106;12.008;2023-02-25T10:04:34;16.80;83.50
58519;DHT22;44310;48.106;12.008;2023-02-25T10:07:11;16.20;83.20
58519;DHT22;44310;48.106;12.008;2023-02-25T10:09:50;16.10;82.90
58519;DHT22;44310;48.106;12.008;2023-02-25T10:12:38;16.20;83.10
58519;DHT22;44310;48.106;12.008;2023-02-25T10:15:43;16.20;83.00
58519;DHT22;44310;48.106;12.008;2023-02-25T10:26:41;16.10;83.20
58519;DHT22;44310;48.106;12.008;2023-02-25T10:29:25;16.10;83.20
58519;DHT22;44310;48.106;12.008;2023-02-25T10:31:57;16.10;83.60
58519;DHT22;44310;48.106;12.008;2023-02-25T10:34:27;16.30;83.70
58519;DHT22;44310;48.106;12.008;2023-02-25T10:36:58;16.20;83.60
58519;DHT22;44310;48.106;12.008;2023-02-25T10:39:26;16.10;83.10
58519;DHT22;44310;48.106;12.008;2023-02-25T10:41:54;16.10;82.70
58519;DHT22;44310;48.106;12.008;2023-02-25T10:44:22;16.20;82.70
58519;DHT22;44310;48.106;12.008;2023-02-25T10:46:59;16.20;82.80
58519;DHT22;44310;48.106;12.008;2023-02-25T10:49:28;16.20;83.00
58519;DHT22;44310;48.106;12.008;2023-02-25T10:52:18;16.20;83.00
58519;DHT22;44310;48.106;12.008;2023-02-25T10:54:48;16.20;83.30
58519;DHT22;44310;48.106;12.008;2023-02-25T10:57:27;16.20;82.40
58519;DHT22;44310;48.106;12.008;2023-02-25T11:00:05;16.10;82.00
58519;DHT22;44310;48.106;12.008;2023-02-25T11:02:55;16.10;81.40
58519;DHT22;44310;48.106;12.008;2023-02-25T11:05:39;16.10;81.10
58519;DHT22;44310;48.106;12.008;2023-02-25T11:08:31;16.10;80.50
58519;DHT22;44310;48.106;12.008;2023-02-25T11:11:41;16.10;80.70
58519;DHT22;44310;48.106;12.008;2023-02-25T11:14:13;16.00;78.80
58519;DHT22;44310;48.106;12.008;2023-02-25T11:16:42;15.80;78.40
58519;DHT22;44310;48.106;12.008;2023-02-25T11:19:26;15.80;78.40
58519;DHT22;44310;48.106;12.008;2023-02-25T11:21:56;15.70;78.40
58519;DHT22;44310;48.106;12.008;2023-02-25T11:24:32;16.10;78.70
58519;DHT22;44310;48.106;12.008;2023-02-25T11:27:02;15.60;79.70
58519;DHT22;44310;48.106;12.008;2023-02-25T11:29:35;15.20;77.20
58519;DHT22;44310;48.106;12.008;2023-02-25T11:32:16;15.50;76.40
58519;DHT22;44310;48.106;12.008;2023-02-25T11:34:56;15.20;76.60
58519;DHT22;44310;48.106;12.008;2023-02-25T11:37:38;15.40;76.90
58519;DHT22;44310;48.106;12.008;2023-02-25T11:43:13;15.50;77.20
58519;DHT22;44310;48.106;12.008;2023-02-25T11:46:34;15.40;77.70
58519;DHT22;44310;48.106;12.008;2023-02-25T11:49:01;15.40;78.10
58519;DHT22;44310;48.106;12.008;2023-02-25T11:51:54;15.40;77.00
58519;DHT22;44310;48.106;12.008;2023-02-25T11:54:33;15.30;76.50
58519;DHT22;44310;48.106;12.008;2023-02-25T12:00:22;15.10;74.30
58519;DHT22;44310;48.106;12.008;2023-02-25T12:15:23;15.40;74.80
58519;DHT22;44310;48.106;12.008;2023-02-25T12:23:58;15.30;74.80
58519;DHT22;44310;48.106;12.008;2023-02-25T12:27:39;15.30;74.80
58519;DHT22;44310;48.106;12.008;2023-02-25T12:30:06;15.30;75.30
58519;DHT22;44310;48.106;12.008;2023-02-25T12:35:39;15.30;75.10
58519;DHT22;44310;48.106;12.008;2023-02-25T12:41:46;15.30;74.90
58519;DHT22;44310;48.106;12.008;2023-02-25T12:45:26;15.30;74.90
58519;DHT22;44310;48.106;12.008;2023-02-25T12:52:41;15.20;75.00
58519;DHT22;44310;48.106;12.008;2023-02-25T13:06:41;15.20;78.00
58519;DHT22;44310;48.106;12.008;2023-02-25T13:14:58;15.40;80.10
58519;DHT22;44310;48.106;12.008;2023-02-25T13:28:54;15.40;81.20
58519;DHT22;44310;48.106;12.008;2023-02-25T13:31:56;15.50;81.60
58519;DHT22;44310;48.106;12.008;2023-02-25T13:35:31;15.40;81.60
58519;DHT22;44310;48.106;12.008;2023-02-25T13:43:20;15.40;81.60
58519;DHT22;44310;48.106;12.008;2023-02-25T13:50:20;15.40;81.60
58519;DHT22;44310;48.106;12.008;2023-02-25T13:52:30;15.40;81.30
58519;DHT22;44310;48.106;12.008;2023-02-25T13:55:23;15.40;81.10
58519;DHT22;44310;48.106;12.008;2023-02-25T14:01:03;15.40;80.10
58519;DHT22;44310;48.106;12.008;2023-02-25T14:03:57;15.40;79.40
58519;DHT22;44310;48.106;12.008;2023-02-25T14:09:44;15.20;78.70
58519;DHT22;44310;48.106;12.008;2023-02-25T14:26:46;15.40;79.50
58519;DHT22;44310;48.106;12.008;2023-02-25T14:29:30;15.40;79.80
58519;DHT22;44310;48.106;12.008;2023-02-25T14:38:08;15.40;79.70
58519;DHT22;44310;48.106;12.008;2023-02-25T14:45:55;15.40;79.70
58519;DHT22;44310;48.106;12.008;2023-02-25T14:48:31;15.40;79.70
58519;DHT22;44310;48.106;12.008;2023-02-25T14:51:39;15.90;80.00
58519;DHT22;44310;48.106;12.008;2023-02-25T15:24:45;15.60;78.10
58519;DHT22;44310;48.106;12.008;2023-02-25T15:27:31;16.10;78.70
58519;DHT22;44310;48.106;12.008;2023-02-25T15:30:04;15.70;78.90
58519;DHT22;44310;48.106;12.008;2023-02-25T15:38:43;15.70;79.40
58519;DHT22;44310;48.106;12.008;2023-02-25T15:43:56;15.80;79.80
58519;DHT22;44310;48.106;12.008;2023-02-25T15:49:33;15.50;80.30
58519;DHT22;44310;48.106;12.008;2023-02-25T15:52:03;15.80;80.50
58519;DHT22;44310;48.106;12.008;2023-02-25T15:59:44;15.80;80.80
58519;DHT22;44310;48.106;12.008;2023-02-25T16:10:27;15.90;81.60
58519;DHT22;44310;48.106;12.008;2023-02-25T16:12:56;16.00;81.80
58519;DHT22;44310;48.106;12.008;2023-02-25T16:15:31;15.90;81.90
58519;DHT22;44310;48.106;12.008;2023-02-25T16:20:58;15.90;82.30
58519;DHT22;44310;48.106;12.008;2023-02-25T16:23:26;16.00;81.80
58519;DHT22;44310;48.106;12.008;2023-02-25T16:26:04;15.40;81.40
58519;DHT22;44310;48.106;12.008;2023-02-25T16:28:56;15.90;81.50
58519;DHT22;44310;48.106;12.008;2023-02-25T16:31:34;16.00;81.60
58519;DHT22;44310;48.106;12.008;2023-02-25T16:34:05;16.00;81.60
58519;DHT22;44310;48.106;12.008;2023-02-25T16:39:18;16.10;81.60
58519;DHT22;44310;48.106;12.008;2023-02-25T16:41:46;16.20;81.40
58519;DHT22;44310;48.106;12.008;2023-02-25T16:44:19;16.00;81.30
58519;DHT22;44310;48.106;12.008;2023-02-25T16:46:50;16.00;81.40
58519;DHT22;44310;48.106;12.008;2023-02-25T16:49:39;16.00;81.30
58519;DHT22;44310;48.106;12.008;2023-02-25T16:52:16;16.10;81.30
58519;DHT22;44310;48.106;12.008;2023-02-25T16:54:44;17.10;82.00
58519;DHT22;44310;48.106;12.008;2023-02-25T16:57:19;15.90;81.40
58519;DHT22;44310;48.106;12.008;2023-02-25T16:59:47;16.10;81.30
58519;DHT22;44310;48.106;12.008;2023-02-25T17:05:01;16.00;81.00
58519;DHT22;44310;48.106;12.008;2023-02-25T17:07:28;16.00;81.30
58519;DHT22;44310;48.106;12.008;2023-02-25T17:10:02;15.80;81.10
58519;DHT22;44310;48.106;12.008;2023-02-25T17:12:31;15.50;81.10
58519;DHT22;44310;48.106;12.008;2023-02-25T17:15:04;15.90;81.40
58519;DHT22;44310;48.106;12.008;2023-02-25T17:17:35;15.90;81.60
58519;DHT22;44310;48.106;12.008;2023-02-25T17:20:06;15.80;81.60
58519;DHT22;44310;48.106;12.008;2023-02-25T17:22:36;16.00;81.70
58519;DHT22;44310;48.106;12.008;2023-02-25T17:25:04;15.50;81.70
58519;DHT22;44310;48.106;12.008;2023-02-25T17:27:32;15.90;81.80
58519;DHT22;44310;48.106;12.008;2023-02-25T17:30:00;15.80;81.90
58519;DHT22;44310;48.106;12.008;2023-02-25T17:32:29;15.90;82.00
58519;DHT22;44310;48.106;12.008;2023-02-25T17:35:01;15.90;82.00
58519;DHT22;44310;48.106;12.008;2023-02-25T17:37:30;16.00;81.90
58519;DHT22;44310;48.106;12.008;2023-02-25T17:39:58;16.00;81.80
58519;DHT22;44310;48.106;12.008;2023-02-25T17:42:37;15.90;81.60
58519;DHT22;44310;48.106;12.008;2023-02-25T17:48:19;15.90;81.30
58519;DHT22;44310;48.106;12.008;2023-02-25T17:51:06;15.70;81.00
58519;DHT22;44310;48.106;12.008;2023-02-25T17:53:46;15.90;81.10
58519;DHT22;44310;48.106;12.008;2023-02-25T17:56:21;15.80;81.00
58519;DHT22;44310;48.106;12.008;2023-02-25T17:58:52;15.80;80.90
58519;DHT22;44310;48.106;12.008;2023-02-25T18:01:26;17.30;81.80
58519;DHT22;44310;48.106;12.008;2023-02-25T18:03:56;15.40;81.30
58519;DHT22;44310;48.106;12.008;2023-02-25T18:08:59;15.50;81.20
58519;DHT22;44310;48.106;12.008;2023-02-25T18:11:32;15.90;81.20
58519;DHT22;44310;48.106;12.008;2023-02-25T18:16:51;16.00;81.10
58519;DHT22;44310;48.106;12.008;2023-02-25T18:19:24;16.00;80.90
58519;DHT22;44310;48.106;12.008;2023-02-25T18:21:53;15.80;81.00
58519;DHT22;44310;48.106;12.008;2023-02-25T18:24:26;15.90;81.10
58519;DHT22;44310;48.106;12.008;2023-02-25T18:27:03;15.90;81.50
58519;DHT22;44310;48.106;12.008;2023-02-25T18:29:31;16.00;81.30
58519;DHT22;44310;48.106;12.008;2023-02-25T18:31:59;15.40;80.90
58519;DHT22;44310;48.106;12.008;2023-02-25T18:34:26;16.40;81.20
58519;DHT22;44310;48.106;12.008;2023-02-25T18:36:53;16.30;81.30
58519;DHT22;44310;48.106;12.008;2023-02-25T18:39:21;16.00;81.40
58519;DHT22;44310;48.106;12.008;2023-02-25T18:41:49;14.80;80.80
58519;DHT22;44310;48.106;12.008;2023-02-25T18:44:16;15.80;81.60
58519;DHT22;44310;48.106;12.008;2023-02-25T18:46:43;15.90;81.80
58519;DHT22;44310;48.106;12.008;2023-02-25T18:49:11;15.20;81.30
58519;DHT22;44310;48.106;12.008;2023-02-25T18:51:38;16.00;82.20
58519;DHT22;44310;48.106;12.008;2023-02-25T18:54:05;16.00;82.50
58519;DHT22;44310;48.106;12.008;2023-02-25T18:56:32;16.20;82.60
58519;DHT22;44310;48.106;12.008;2023-02-25T18:58:59;15.90;82.10
58519;DHT22;44310;48.106;12.008;2023-02-25T19:01:30;16.00;81.90
58519;DHT22;44310;48.106;12.008;2023-02-25T19:03:58;16.00;81.60
58519;DHT22;44310;48.106;12.008;2023-02-25T19:06:27;16.00;81.40
58519;DHT22;44310;48.106;12.008;2023-02-25T19:08:55;16.00;81.20
58519;DHT22;44310;48.106;12.008;2023-02-25T19:11:24;16.10;81.10
58519;DHT22;44310;48.106;12.008;2023-02-25T19:13:52;16.00;80.90
58519;DHT22;44310;48.106;12.008;2023-02-25T19:16:19;15.80;80.60
58519;DHT22;44310;48.106;12.008;2023-02-25T19:18:49;15.90;80.50